Time;durP1;ratioP1;P1;durP2;ratioP2;P2;SDS_P1;SDS_P2;PMS_P1;PMS_P2;Temp;Humidity;BMP_temperature;BMP_pressure;BME280_temperature;BME280_humidity;BME280_pressure;Samples;Min_cycle;Max_cycle;Signal;HPM_P1;HPM_P2
2022/04/20 00:00:41;;;;;;;16.65;11.35;;;10.40;99.90;;;;;;4995418;28;20101;-75
2022/04/20 00:03:07;;;;;;;15.70;11.10;;;10.30;99.90;;;;;;4994502;28;20414;-77
2022/04/20 00:05:33;;;;;;;18.60;10.63;;;10.30;99.90;;;;;;4995059;28;20100;-75
2022/04/20 00:08:06;;;;;;;17.90;10.75;;;10.20;99.90;;;;;;4993774;28;20445;-75
2022/04/20 00:10:31;;;;;;;13.20;9.77;;;10.20;99.90;;;;;;4994389;28;20042;-77
2022/04/20 00:12:57;;;;;;;14.30;10.05;;;10.10;99.90;;;;;;4994087;28;20029;-77
2022/04/20 00:15:23;;;;;;;15.30;9.73;;;10.20;99.90;;;;;;4993979;28;20038;-75
2022/04/20 00:17:50;;;;;;;15.93;10.43;;;10.20;99.90;;;;;;4994342;28;20034;-76
2022/04/20 00:20:16;;;;;;;14.70;9.65;;;10.20;99.90;;;;;;4994451;28;20022;-75
2022/04/20 00:22:41;;;;;;;15.77;10.38;;;10.10;99.90;;;;;;4993762;28;20029;-77
2022/04/20 00:25:07;;;;;;;15.13;9.25;;;10.00;99.90;;;;;;4993982;28;20118;-76
2022/04/20 00:27:35;;;;;;;13.73;9.75;;;10.00;99.90;;;;;;4994475;28;20101;-76
2022/04/20 00:30:02;;;;;;;15.68;10.13;;;10.00;99.90;;;;;;4993467;28;20462;-75
2022/04/20 00:32:29;;;;;;;12.02;9.18;;;10.00;99.90;;;;;;4994381;28;20033;-74
2022/04/20 00:34:55;;;;;;;12.60;10.00;;;10.00;99.90;;;;;;4993631;28;20049;-77
2022/04/20 00:37:20;;;;;;;13.68;9.77;;;10.00;99.90;;;;;;4993448;28;20038;-75
2022/04/20 00:39:46;;;;;;;13.60;8.48;;;9.90;99.90;;;;;;4993921;28;20026;-75
2022/04/20 00:42:12;;;;;;;12.75;9.40;;;9.90;99.90;;;;;;4993959;28;20113;-75
2022/04/20 00:44:40;;;;;;;12.93;9.32;;;9.80;99.90;;;;;;4993407;28;20489;-75
2022/04/20 00:47:07;;;;;;;16.05;8.88;;;9.80;99.90;;;;;;4993679;28;20356;-76
2022/04/20 00:49:36;;;;;;;13.88;9.00;;;9.70;99.90;;;;;;5001030;28;20047;-76
2022/04/20 00:52:03;;;;;;;18.55;9.25;;;9.60;99.90;;;;;;4993464;28;20022;-76
2022/04/20 00:54:29;;;;;;;14.20;9.27;;;9.60;99.90;;;;;;4993774;28;20029;-75
2022/04/20 00:56:55;;;;;;;13.52;8.88;;;9.60;99.90;;;;;;4993022;28;20051;-76
2022/04/20 00:59:25;;;;;;;13.10;8.57;;;9.60;99.90;;;;;;4993222;28;20026;-77
2022/04/20 01:01:51;;;;;;;15.07;8.77;;;9.50;99.90;;;;;;4993563;28;20030;-76
2022/04/20 01:04:17;;;;;;;14.55;9.82;;;9.50;99.90;;;;;;4993116;28;20106;-76
2022/04/20 01:06:44;;;;;;;15.13;9.75;;;9.50;99.90;;;;;;4993662;28;20042;-75
2022/04/20 01:09:10;;;;;;;11.93;8.55;;;9.40;99.90;;;;;;4993624;28;20105;-75
2022/04/20 01:11:35;;;;;;;14.90;8.68;;;9.30;99.90;;;;;;4992736;28;20152;-76
2022/04/20 01:14:01;;;;;;;14.23;8.73;;;9.30;99.90;;;;;;4993186;28;20026;-74
2022/04/20 01:16:27;;;;;;;16.02;9.95;;;9.20;99.90;;;;;;4993064;28;20034;-75
2022/04/20 01:18:53;;;;;;;14.02;8.93;;;9.20;99.90;;;;;;4992192;28;20030;-75
2022/04/20 01:21:19;;;;;;;13.57;9.20;;;9.10;99.90;;;;;;4993151;28;20529;-75
2022/04/20 01:23:45;;;;;;;16.13;9.52;;;9.20;99.90;;;;;;4993063;28;20034;-75
2022/04/20 01:26:11;;;;;;;11.10;8.05;;;9.10;99.90;;;;;;4991917;28;20038;-76
2022/04/20 01:28:38;;;;;;;12.13;8.43;;;9.20;99.90;;;;;;4993240;28;20112;-76
2022/04/20 01:31:04;;;;;;;17.75;8.65;;;9.10;99.90;;;;;;4992823;28;20027;-76
2022/04/20 01:33:30;;;;;;;11.27;7.90;;;9.10;99.90;;;;;;4992222;28;20088;-76
2022/04/20 01:35:56;;;;;;;12.68;8.75;;;9.10;99.90;;;;;;4992637;28;20395;-76
2022/04/20 01:38:22;;;;;;;10.85;7.97;;;9.20;99.90;;;;;;4992824;28;20019;-76
2022/04/20 01:40:47;;;;;;;12.73;7.97;;;9.20;99.90;;;;;;4992109;28;20479;-74
2022/04/20 01:43:15;;;;;;;12.35;8.60;;;9.20;99.90;;;;;;4992905;28;20084;-76
2022/04/20 01:45:41;;;;;;;12.18;8.02;;;9.20;99.90;;;;;;4993061;28;20029;-76
2022/04/20 01:48:07;;;;;;;10.48;7.47;;;9.20;99.90;;;;;;4992174;28;20030;-76
2022/04/20 01:50:33;;;;;;;12.02;8.43;;;9.10;99.90;;;;;;4992942;28;20038;-75
2022/04/20 01:52:58;;;;;;;13.57;7.78;;;9.10;99.90;;;;;;4992897;28;20395;-75
2022/04/20 01:55:24;;;;;;;11.45;7.63;;;9.10;99.90;;;;;;4994049;28;20108;-76
2022/04/20 01:57:50;;;;;;;12.07;8.35;;;9.00;99.90;;;;;;5001352;28;20069;-75
2022/04/20 02:00:16;;;;;;;9.73;7.38;;;9.00;99.90;;;;;;4992833;28;20486;-76
2022/04/20 02:02:45;;;;;;;11.05;7.72;;;9.00;99.90;;;;;;4991989;28;20037;-76
2022/04/20 02:05:12;;;;;;;13.63;8.10;;;8.90;99.90;;;;;;4992431;28;20019;-76
2022/04/20 02:07:37;;;;;;;10.25;7.60;;;8.90;99.90;;;;;;4992399;28;20116;-75
2022/04/20 02:10:06;;;;;;;10.35;8.18;;;8.80;99.90;;;;;;4992647;28;20050;-75
2022/04/20 02:12:31;;;;;;;10.45;7.68;;;8.80;99.90;;;;;;4992502;28;20030;-77
2022/04/20 02:14:57;;;;;;;11.77;7.32;;;8.80;99.90;;;;;;4991739;28;20035;-77
2022/04/20 02:17:23;;;;;;;10.68;7.75;;;8.70;99.90;;;;;;4992483;28;20038;-76
2022/04/20 02:19:49;;;;;;;10.52;7.28;;;8.70;99.90;;;;;;4992529;28;20041;-77
2022/04/20 02:22:16;;;;;;;10.48;7.55;;;8.60;99.90;;;;;;4992265;28;20042;-77
2022/04/20 02:24:42;;;;;;;9.48;7.13;;;8.60;99.90;;;;;;4992885;28;20101;-77
2022/04/20 02:27:09;;;;;;;10.63;8.27;;;8.60;99.90;;;;;;4992471;28;20032;-76
2022/04/20 02:29:35;;;;;;;11.95;7.93;;;8.50;99.90;;;;;;5006495;28;20041;-77
2022/04/20 02:32:00;;;;;;;10.15;7.30;;;8.50;99.90;;;;;;5011743;28;20033;-76
2022/04/20 02:34:26;;;;;;;12.88;7.00;;;8.40;99.90;;;;;;5011969;28;20034;-76
2022/04/20 02:36:52;;;;;;;12.57;6.90;;;8.40;99.90;;;;;;5011236;28;20057;-76
2022/04/20 02:39:19;;;;;;;12.13;6.90;;;8.40;99.90;;;;;;5014924;28;20528;-76
2022/04/20 02:41:44;;;;;;;11.77;7.88;;;8.40;99.90;;;;;;5015902;28;20401;-76
2022/04/20 02:44:11;;;;;;;12.27;7.65;;;8.40;99.90;;;;;;5014779;28;20114;-77
2022/04/20 02:46:36;;;;;;;8.63;6.85;;;8.40;99.90;;;;;;5016025;28;20037;-77
2022/04/20 02:49:02;;;;;;;9.13;6.85;;;8.30;99.90;;;;;;5015116;28;20034;-77
2022/04/20 02:51:28;;;;;;;10.82;7.10;;;8.30;99.90;;;;;;5015072;28;20034;-76
2022/04/20 02:53:53;;;;;;;10.23;7.53;;;8.30;99.90;;;;;;5015519;28;20049;-76
2022/04/20 02:56:19;;;;;;;9.98;7.05;;;8.20;99.90;;;;;;5015196;28;20524;-77
2022/04/20 02:58:45;;;;;;;8.90;6.90;;;8.10;99.90;;;;;;5014785;28;20022;-77
2022/04/20 03:01:10;;;;;;;11.35;7.28;;;8.10;99.90;;;;;;5015051;28;20026;-76
2022/04/20 03:03:36;;;;;;;12.15;7.25;;;8.00;99.90;;;;;;5015304;28;20466;-76
2022/04/20 03:06:01;;;;;;;12.13;6.95;;;8.00;99.90;;;;;;5014377;28;20541;-75
2022/04/20 03:08:28;;;;;;;8.68;6.65;;;7.90;99.90;;;;;;5015470;28;20025;-75
2022/04/20 03:10:53;;;;;;;10.10;7.07;;;7.80;99.90;;;;;;5014028;28;20072;-76
2022/04/20 03:13:19;;;;;;;9.52;7.28;;;7.80;99.90;;;;;;5015192;28;20030;-76
2022/04/20 03:15:46;;;;;;;9.85;6.70;;;7.80;99.90;;;;;;5015281;28;20030;-76
2022/04/20 03:18:12;;;;;;;9.65;6.72;;;7.80;99.90;;;;;;5014143;28;20056;-76
2022/04/20 03:20:38;;;;;;;9.23;6.53;;;7.80;99.90;;;;;;5015777;28;20080;-78
2022/04/20 03:23:05;;;;;;;11.85;7.15;;;7.80;99.90;;;;;;5014924;28;20025;-77
2022/04/20 03:25:31;;;;;;;8.93;6.57;;;7.80;99.90;;;;;;5014411;28;20034;-77
2022/04/20 03:27:57;;;;;;;8.60;7.22;;;7.80;99.90;;;;;;5014771;28;20105;-75
2022/04/20 03:30:22;;;;;;;9.07;6.68;;;7.70;99.90;;;;;;5014823;28;20396;-76
2022/04/20 03:32:48;;;;;;;9.13;5.95;;;7.70;99.90;;;;;;5013811;28;20026;-76
2022/04/20 03:35:14;;;;;;;8.32;6.40;;;7.70;99.90;;;;;;5014933;28;20030;-75
2022/04/20 03:37:40;;;;;;;8.75;5.40;;;7.70;99.90;;;;;;5015021;28;20060;-75
2022/04/20 03:40:08;;;;;;;12.27;7.32;;;7.70;99.90;;;;;;5014014;28;20041;-76
2022/04/20 03:42:34;;;;;;;9.55;6.28;;;7.70;99.90;;;;;;5014747;28;20040;-74
2022/04/20 03:44:59;;;;;;;7.85;6.28;;;7.70;99.90;;;;;;5014443;28;20056;-75
2022/04/20 03:47:25;;;;;;;9.10;6.13;;;7.70;99.90;;;;;;5013950;28;20057;-76
2022/04/20 03:49:50;;;;;;;8.18;5.85;;;7.70;99.90;;;;;;5014243;28;20056;-75
2022/04/20 03:52:16;;;;;;;7.28;5.63;;;7.70;99.90;;;;;;5014725;28;20029;-77
2022/04/20 03:54:41;;;;;;;7.32;5.93;;;7.70;99.90;;;;;;5013865;28;20075;-76
2022/04/20 03:57:07;;;;;;;9.27;6.47;;;7.80;99.90;;;;;;5021301;28;20101;-76
2022/04/20 03:59:37;;;;;;;7.80;6.03;;;7.80;99.90;;;;;;5017504;28;20029;-75
2022/04/20 04:02:04;;;;;;;8.53;5.87;;;7.80;99.90;;;;;;5013519;28;20053;-75
2022/04/20 04:04:31;;;;;;;9.13;5.70;;;7.80;99.90;;;;;;5014580;28;20048;-76
2022/04/20 04:06:57;;;;;;;7.50;6.30;;;7.80;99.90;;;;;;5014098;28;20033;-75
2022/04/20 04:09:22;;;;;;;6.55;5.68;;;7.70;99.90;;;;;;5013671;28;20042;-75
2022/04/20 04:11:48;;;;;;;12.57;5.80;;;7.70;99.90;;;;;;5014023;28;20033;-75
2022/04/20 04:14:14;;;;;;;8.57;5.95;;;7.60;99.90;;;;;;5013333;28;20213;-75
2022/04/20 04:16:40;;;;;;;9.40;6.47;;;7.60;99.90;;;;;;5014174;28;20033;-75
2022/04/20 04:19:07;;;;;;;11.38;6.20;;;7.50;99.90;;;;;;5013872;28;20037;-75
2022/04/20 04:21:37;;;;;;;14.45;5.40;;;7.50;99.90;;;;;;5013341;28;20029;-75
2022/04/20 04:24:04;;;;;;;7.78;5.80;;;7.50;99.90;;;;;;5013563;28;20030;-75
2022/04/20 04:26:30;;;;;;;6.63;5.38;;;7.40;99.90;;;;;;5013502;28;20061;-76
2022/04/20 04:28:57;;;;;;;15.00;6.40;;;7.40;99.90;;;;;;5012705;28;20057;-75
2022/04/20 04:31:23;;;;;;;11.13;6.00;;;7.40;99.90;;;;;;5013889;28;20041;-76
2022/04/20 04:33:48;;;;;;;8.02;6.32;;;7.40;99.90;;;;;;5013505;28;20382;-75
2022/04/20 04:36:14;;;;;;;10.00;6.32;;;7.30;99.90;;;;;;5012919;28;20088;-75
2022/04/20 04:38:40;;;;;;;7.97;5.72;;;7.30;99.90;;;;;;5013706;28;20050;-75
2022/04/20 04:41:05;;;;;;;10.13;7.47;;;7.30;99.90;;;;;;5013184;28;20133;-74
2022/04/20 04:43:31;;;;;;;7.43;5.95;;;7.30;99.90;;;;;;5012753;28;20025;-75
2022/04/20 04:48:41;;;;;;;9.38;6.55;;;7.30;99.90;;;;;;5013579;28;20033;-76
2022/04/20 04:51:08;;;;;;;9.68;6.05;;;7.40;99.90;;;;;;5012513;28;20018;-74
2022/04/20 04:53:37;;;;;;;12.77;6.18;;;7.40;99.90;;;;;;5013384;28;20412;-75
2022/04/20 04:56:03;;;;;;;9.50;5.72;;;7.40;99.90;;;;;;5012789;28;20461;-77
2022/04/20 04:58:28;;;;;;;8.90;6.25;;;7.40;99.90;;;;;;5012786;28;20018;-75
2022/04/20 05:00:54;;;;;;;8.68;5.60;;;7.50;99.90;;;;;;5012408;28;20489;-76
2022/04/20 05:03:20;;;;;;;6.60;5.80;;;7.50;99.90;;;;;;5012586;28;20125;-75
2022/04/20 05:05:46;;;;;;;7.50;5.30;;;7.50;99.90;;;;;;5013217;28;20041;-75
2022/04/20 05:08:12;;;;;;;10.25;5.63;;;7.50;99.90;;;;;;5012885;28;20114;-75
2022/04/20 05:10:38;;;;;;;7.45;5.43;;;7.50;99.90;;;;;;5012354;28;20037;-74
2022/04/20 05:13:07;;;;;;;7.30;6.20;;;7.50;99.90;;;;;;5012839;28;20112;-75
2022/04/20 05:15:33;;;;;;;5.65;5.03;;;7.60;99.90;;;;;;5013142;28;20091;-76
2022/04/20 05:18:00;;;;;;;9.05;5.40;;;7.50;99.90;;;;;;5011937;28;20025;-74
2022/04/20 05:20:26;;;;;;;5.63;5.05;;;7.50;99.90;;;;;;5012836;28;20048;-74
2022/04/20 05:22:52;;;;;;;5.88;5.18;;;7.60;99.90;;;;;;5028775;28;20033;-74
2022/04/20 05:25:17;;;;;;;8.57;5.00;;;7.60;99.90;;;;;;5028586;28;20377;-74
2022/04/20 05:27:44;;;;;;;9.63;5.88;;;7.60;99.90;;;;;;5032037;28;20034;-74
2022/04/20 05:30:13;;;;;;;9.73;6.25;;;7.70;99.90;;;;;;5037044;28;20036;-75
2022/04/20 05:32:39;;;;;;;7.88;5.38;;;7.70;99.90;;;;;;5038282;28;20030;-76
2022/04/20 05:35:05;;;;;;;9.65;5.25;;;7.70;99.90;;;;;;5031685;28;20029;-73
2022/04/20 05:42:59;;;;;;;7.32;5.10;;;7.90;99.90;;;;;;5031050;28;20040;-74
2022/04/20 05:45:25;;;;;;;7.07;5.13;;;8.00;99.90;;;;;;5030990;28;20037;-74
2022/04/20 05:47:52;;;;;;;13.02;5.05;;;8.00;99.90;;;;;;5029943;28;20373;-74
2022/04/20 05:50:17;;;;;;;5.78;4.90;;;8.10;99.90;;;;;;5028219;28;20420;-73
2022/04/20 05:52:43;;;;;;;6.65;4.80;;;8.10;99.90;;;;;;5030112;28;20025;-75
2022/04/20 05:55:09;;;;;;;5.15;4.53;;;8.20;99.90;;;;;;5030444;28;20107;-73
2022/04/20 05:57:35;;;;;;;6.57;4.63;;;8.20;99.90;;;;;;5030757;28;20026;-74
2022/04/20 06:00:02;;;;;;;6.25;4.68;;;8.30;99.90;;;;;;5029560;28;20374;-74
2022/04/20 06:02:27;;;;;;;7.50;5.05;;;8.30;99.90;;;;;;5025363;28;20053;-74
2022/04/20 06:04:53;;;;;;;6.05;5.38;;;8.40;99.90;;;;;;5030274;28;20040;-74
2022/04/20 06:07:18;;;;;;;5.70;4.68;;;8.40;99.90;;;;;;5028689;28;20453;-75
2022/04/20 06:09:44;;;;;;;4.97;4.55;;;8.50;99.90;;;;;;5026951;28;20106;-75
2022/04/20 06:12:10;;;;;;;5.63;4.93;;;8.50;99.90;;;;;;5031647;28;20024;-75
2022/04/20 06:14:35;;;;;;;7.60;5.10;;;8.70;99.90;;;;;;5033913;28;20033;-75
2022/04/20 06:17:01;;;;;;;5.28;4.78;;;8.60;99.90;;;;;;5034488;28;20425;-75
2022/04/20 06:19:26;;;;;;;5.05;4.40;;;8.70;99.90;;;;;;5034555;28;20034;-74
2022/04/20 06:21:52;;;;;;;10.25;4.65;;;8.70;99.90;;;;;;5033778;28;20064;-75
2022/04/20 06:24:17;;;;;;;6.35;4.32;;;8.90;99.90;;;;;;5034755;28;20102;-72
2022/04/20 06:26:43;;;;;;;5.63;4.13;;;9.00;99.90;;;;;;5034586;28;20362;-74
2022/04/20 06:29:08;;;;;;;6.80;4.78;;;9.10;99.90;;;;;;5033338;28;20063;-74
2022/04/20 06:31:35;;;;;;;4.75;4.10;;;9.20;99.90;;;;;;5034348;28;20422;-74
2022/04/20 06:34:02;;;;;;;9.63;4.25;;;9.30;99.90;;;;;;5034050;28;20026;-74
2022/04/20 06:36:27;;;;;;;4.93;4.47;;;9.40;99.90;;;;;;5033770;28;20065;-74
2022/04/20 06:38:53;;;;;;;4.70;4.28;;;9.50;99.90;;;;;;5028969;28;20056;-74
2022/04/20 06:41:19;;;;;;;11.48;4.18;;;9.60;99.90;;;;;;5034247;28;20029;-74
2022/04/20 06:43:45;;;;;;;7.03;4.47;;;9.60;99.90;;;;;;5023899;28;20039;-72
2022/04/20 06:46:10;;;;;;;3.97;3.47;;;9.70;99.90;;;;;;5030035;28;20025;-73
2022/04/20 06:48:36;;;;;;;5.00;4.30;;;9.80;99.90;;;;;;5032797;28;20024;-73
2022/04/20 06:51:02;;;;;;;5.20;3.80;;;9.90;99.90;;;;;;5032125;28;20036;-73
2022/04/20 06:59:13;;;;;;;5.80;4.00;;;10.20;99.90;;;;;;5050919;28;20060;-74
2022/04/20 07:01:39;;;;;;;5.97;3.50;;;10.30;99.90;;;;;;5037577;28;20049;-74
2022/04/20 07:04:08;;;;;;;4.72;3.60;;;10.40;99.90;;;;;;5033674;28;20037;-74
2022/04/20 07:06:33;;;;;;;4.95;4.05;;;10.40;99.90;;;;;;5033922;28;20080;-72
2022/04/20 07:08:59;;;;;;;4.05;3.55;;;10.50;99.90;;;;;;5028159;28;20025;-72
2022/04/20 07:11:28;;;;;;;6.82;3.40;;;10.60;99.90;;;;;;5039602;28;20017;-74
2022/04/20 07:13:54;;;;;;;3.88;3.50;;;10.60;99.90;;;;;;5031189;28;20096;-74
2022/04/20 07:16:20;;;;;;;3.25;2.95;;;10.70;99.90;;;;;;5034273;28;20037;-73
2022/04/20 07:18:45;;;;;;;4.05;3.70;;;10.70;99.90;;;;;;5033898;28;20030;-73
2022/04/20 07:21:11;;;;;;;6.65;4.25;;;10.80;99.90;;;;;;5034198;28;20497;-73
2022/04/20 07:23:36;;;;;;;4.22;3.83;;;10.90;99.90;;;;;;5032355;28;20040;-71
2022/04/20 07:26:02;;;;;;;6.97;4.43;;;10.90;99.90;;;;;;5032262;28;20033;-74
2022/04/20 07:28:28;;;;;;;6.53;3.78;;;10.90;99.90;;;;;;5032486;28;20466;-73
2022/04/20 07:30:54;;;;;;;4.18;3.78;;;11.00;99.90;;;;;;5014363;28;20034;-73
2022/04/20 07:33:19;;;;;;;4.88;4.00;;;11.10;99.90;;;;;;5014134;28;20066;-72
2022/04/20 07:35:45;;;;;;;5.20;3.40;;;11.10;99.90;;;;;;5014899;28;20030;-72
2022/04/20 07:38:12;;;;;;;5.78;4.10;;;11.20;99.90;;;;;;5013718;28;20111;-73
2022/04/20 07:40:38;;;;;;;4.55;3.97;;;11.20;99.90;;;;;;5014523;28;20030;-74
2022/04/20 07:43:04;;;;;;;7.43;3.72;;;11.30;99.90;;;;;;5014589;28;20033;-73
2022/04/20 07:45:30;;;;;;;6.10;4.22;;;11.40;99.90;;;;;;5013919;28;20536;-74
2022/04/20 07:47:56;;;;;;;5.80;3.85;;;11.50;99.90;;;;;;5014533;28;20137;-73
2022/04/20 07:50:24;;;;;;;5.75;3.85;;;11.50;99.90;;;;;;5014481;28;20014;-74
2022/04/20 07:53:00;;;;;;;4.20;3.80;;;11.60;99.90;;;;;;5013473;28;20101;-74
2022/04/20 07:55:30;;;;;;;4.63;4.20;;;11.70;99.90;;;;;;5014355;28;20050;-73
2022/04/20 07:57:58;;;;;;;4.35;4.00;;;11.70;99.90;;;;;;5014373;28;20041;-73
2022/04/20 08:00:24;;;;;;;5.20;4.00;;;11.90;99.10;;;;;;5013796;28;20088;-72
2022/04/20 08:02:50;;;;;;;7.50;4.55;;;12.00;98.70;;;;;;5014024;28;20045;-73
2022/04/20 08:05:19;;;;;;;7.85;4.22;;;12.00;99.10;;;;;;5014287;28;20014;-74
2022/04/20 08:07:45;;;;;;;5.15;4.40;;;12.00;99.00;;;;;;5013474;28;20540;-73
2022/04/20 08:10:12;;;;;;;4.20;3.80;;;12.00;99.10;;;;;;5013998;28;20405;-73
2022/04/20 08:12:44;;;;;;;8.90;4.38;;;12.10;98.20;;;;;;5014456;28;20026;-72
2022/04/20 08:15:11;;;;;;;19.25;7.75;;;12.20;97.50;;;;;;5013040;28;20033;-74
2022/04/20 08:17:37;;;;;;;7.95;4.72;;;12.30;98.20;;;;;;5013995;28;20040;-72
2022/04/20 08:20:05;;;;;;;6.95;4.35;;;12.30;98.10;;;;;;5013603;28;20030;-69
2022/04/20 08:22:30;;;;;;;7.75;4.50;;;12.30;98.40;;;;;;5011932;28;20037;-69
2022/04/20 08:24:56;;;;;;;6.43;4.03;;;12.50;99.20;;;;;;5018536;28;20041;-72
2022/04/20 08:27:22;;;;;;;9.13;4.43;;;12.50;98.90;;;;;;5033167;28;20025;-72
2022/04/20 08:29:49;;;;;;;5.90;4.43;;;12.60;98.80;;;;;;5033501;28;20032;-71
2022/04/20 08:32:18;;;;;;;7.07;4.30;;;12.70;98.50;;;;;;5033627;28;20033;-72
2022/04/20 08:34:45;;;;;;;4.85;4.35;;;12.70;98.60;;;;;;5032680;28;20033;-73
2022/04/20 08:37:11;;;;;;;4.32;3.92;;;12.70;97.50;;;;;;5031943;28;20065;-72
2022/04/20 08:39:41;;;;;;;5.82;4.55;;;12.80;97.50;;;;;;5033820;28;20060;-70
2022/04/20 08:42:07;;;;;;;6.20;4.28;;;12.90;97.50;;;;;;5032527;28;20026;-71
2022/04/20 08:44:38;;;;;;;4.88;3.95;;;12.90;97.10;;;;;;5033424;28;20068;-71
2022/04/20 08:47:07;;;;;;;7.22;4.80;;;13.00;96.00;;;;;;5033077;28;20022;-70
2022/04/20 08:49:34;;;;;;;6.95;3.90;;;13.10;95.60;;;;;;5032616;28;20034;-70
2022/04/20 08:54:45;;;;;;;6.03;4.05;;;13.20;96.30;;;;;;5033006;28;20405;-70
2022/04/20 08:57:15;;;;;;;7.70;4.40;;;13.30;95.40;;;;;;5032346;28;20029;-71
2022/04/20 08:59:43;;;;;;;7.63;4.00;;;13.40;95.60;;;;;;5034034;28;20029;-70
2022/04/20 09:02:12;;;;;;;6.68;4.15;;;13.50;94.30;;;;;;5032983;28;20112;-70
2022/04/20 09:04:37;;;;;;;5.00;3.60;;;13.60;93.60;;;;;;5032086;28;20101;-70
2022/04/20 09:07:04;;;;;;;7.95;3.97;;;13.60;94.30;;;;;;5032457;28;20116;-70
2022/04/20 09:09:30;;;;;;;6.07;3.80;;;13.70;93.80;;;;;;5031960;28;20051;-70
2022/04/20 09:11:59;;;;;;;5.82;3.63;;;13.80;94.70;;;;;;5032326;28;20481;-67
2022/04/20 09:14:28;;;;;;;3.50;3.20;;;13.80;93.80;;;;;;5032480;28;20026;-68
2022/04/20 09:16:55;;;;;;;4.05;3.40;;;13.90;94.10;;;;;;5031775;28;20091;-69
2022/04/20 09:19:25;;;;;;;4.03;3.25;;;14.00;93.50;;;;;;5032533;28;20018;-68
2022/04/20 09:21:51;;;;;;;5.97;3.53;;;14.20;92.90;;;;;;4993119;28;20045;-69
2022/04/20 09:24:17;;;;;;;7.75;3.35;;;14.30;92.50;;;;;;4992464;28;20521;-69
2022/04/20 09:26:54;;;;;;;3.97;2.97;;;14.40;92.80;;;;;;5003981;28;20033;-68
2022/04/20 09:29:20;;;;;;;7.45;3.28;;;14.40;92.80;;;;;;5029436;28;20029;-71
2022/04/20 09:31:53;;;;;;;3.17;2.60;;;14.50;92.60;;;;;;5031930;28;20046;-70
2022/04/20 09:34:24;;;;;;;5.97;2.78;;;14.60;91.80;;;;;;5032271;28;20476;-70
2022/04/20 09:36:50;;;;;;;5.38;2.42;;;14.70;90.00;;;;;;5031966;28;20069;-70
2022/04/20 09:39:16;;;;;;;5.43;2.90;;;14.70;90.60;;;;;;5031420;28;20046;-70
2022/04/20 09:42:02;;;;;;;8.43;2.47;;;14.70;90.20;;;;;;5032147;28;20533;-70
2022/04/20 09:44:29;;;;;;;4.13;3.00;;;14.80;88.50;;;;;;5032466;28;20037;-70
2022/04/20 09:50:01;;;;;;;6.05;2.60;;;15.00;87.20;;;;;;5032396;28;20044;-70
2022/04/20 09:52:41;;;;;;;4.13;2.70;;;15.00;87.10;;;;;;5031592;28;20021;-69
2022/04/20 09:55:15;;;;;;;4.43;2.65;;;15.10;87.00;;;;;;5031826;28;20049;-70
2022/04/20 09:57:41;;;;;;;4.20;2.60;;;15.10;87.70;;;;;;5031382;28;20057;-69
2022/04/20 10:00:12;;;;;;;3.33;2.58;;;15.20;86.30;;;;;;5030974;28;20040;-69
2022/04/20 10:02:49;;;;;;;6.10;2.50;;;15.10;84.80;;;;;;5032116;28;20025;-69
2022/04/20 10:05:16;;;;;;;4.35;2.38;;;15.20;83.50;;;;;;5031798;28;20026;-70
2022/04/20 10:07:42;;;;;;;3.28;2.58;;;15.20;85.30;;;;;;5031346;28;20038;-70
2022/04/20 10:10:09;;;;;;;3.92;2.75;;;15.20;83.70;;;;;;5031593;28;20063;-69
2022/04/20 10:12:38;;;;;;;2.47;2.28;;;15.30;84.50;;;;;;5031868;28;20116;-70
2022/04/20 10:17:53;;;;;;;3.10;2.53;;;15.30;82.80;;;;;;5031420;28;20099;-70
2022/04/20 10:20:26;;;;;;;3.03;2.72;;;15.40;83.20;;;;;;5030055;28;20481;-69
2022/04/20 10:22:54;;;;;;;2.47;2.28;;;15.40;84.00;;;;;;5031336;28;20076;-70
2022/04/20 10:25:20;;;;;;;3.83;2.40;;;15.40;82.80;;;;;;5031507;28;20029;-69
2022/04/20 10:27:58;;;;;;;5.05;2.35;;;15.50;80.60;;;;;;5030637;28;20381;-70
2022/04/20 10:30:48;;;;;;;5.43;2.90;;;15.50;80.60;;;;;;5031637;28;20028;-69
2022/04/20 10:33:16;;;;;;;7.20;2.20;;;15.60;81.20;;;;;;5031720;28;20484;-69
2022/04/20 10:35:57;;;;;;;3.40;2.20;;;15.60;77.20;;;;;;5030680;28;20279;-70
2022/04/20 10:38:23;;;;;;;2.47;2.00;;;15.60;79.60;;;;;;5031013;28;20044;-71
2022/04/20 10:40:56;;;;;;;5.22;2.42;;;15.70;76.60;;;;;;5031199;28;20041;-72
2022/04/20 10:43:23;;;;;;;2.70;2.50;;;15.70;76.30;;;;;;5031443;28;20508;-72
2022/04/20 10:46:04;;;;;;;2.65;2.20;;;15.60;78.40;;;;;;5031240;28;20033;-73
2022/04/20 10:48:48;;;;;;;;;;;15.70;78.20;;;;;;5031420;28;20025;-72
2022/04/20 10:51:16;;;;;;;2.80;2.58;;;15.80;78.30;;;;;;5031539;28;19943;-72
2022/04/20 10:53:48;;;;;;;3.13;2.63;;;15.80;78.70;;;;;;5031594;28;20045;-72
2022/04/20 10:56:14;;;;;;;4.13;2.72;;;15.90;79.70;;;;;;5030725;28;20379;-72
2022/04/20 10:59:05;;;;;;;7.63;3.25;;;16.00;78.70;;;;;;5031339;28;20061;-72
2022/04/20 11:01:31;;;;;;;3.38;3.08;;;16.00;80.60;;;;;;5034860;28;20030;-73
2022/04/20 11:04:02;;;;;;;5.60;3.17;;;16.10;79.90;;;;;;5033309;28;20029;-72
2022/04/20 11:06:29;;;;;;;5.78;3.40;;;16.20;79.40;;;;;;5034897;28;20442;-74
2022/04/20 11:09:06;;;;;;;3.50;3.20;;;16.20;78.00;;;;;;5033394;28;20109;-72
2022/04/20 11:20:08;;;;;;;2.95;2.65;;;16.20;76.70;;;;;;5034809;28;20032;-72
2022/04/20 11:22:44;;;;;;;3.08;2.83;;;16.30;77.30;;;;;;5034910;28;20026;-72
2022/04/20 11:25:10;;;;;;;2.70;2.17;;;16.40;77.00;;;;;;5034076;28;20451;-72
2022/04/20 11:27:36;;;;;;;3.42;2.70;;;16.40;76.40;;;;;;5034738;28;20111;-73
2022/04/20 11:30:07;;;;;;;3.65;2.40;;;16.40;78.50;;;;;;5034554;28;20138;-73
2022/04/20 11:32:32;;;;;;;2.97;2.70;;;16.40;77.10;;;;;;5034904;28;20033;-73
2022/04/20 11:35:06;;;;;;;2.90;2.65;;;16.50;77.90;;;;;;5034602;28;20493;-73
2022/04/20 11:37:33;;;;;;;2.90;2.40;;;16.60;76.90;;;;;;5033911;28;20056;-73
2022/04/20 11:39:59;;;;;;;6.47;2.30;;;16.50;74.00;;;;;;5034636;28;20491;-72
2022/04/20 11:42:25;;;;;;;3.33;2.35;;;16.60;76.40;;;;;;5034793;28;20053;-73
2022/04/20 11:44:50;;;;;;;2.17;1.88;;;16.70;76.80;;;;;;5033594;28;20075;-72
2022/04/20 11:47:17;;;;;;;3.17;2.10;;;16.80;74.60;;;;;;5034618;28;20079;-72
2022/04/20 11:49:49;;;;;;;3.55;2.20;;;16.80;74.30;;;;;;5034687;28;20095;-73
2022/04/20 11:52:17;;;;;;;3.15;2.85;;;16.90;76.20;;;;;;5033773;28;20124;-72
2022/04/20 11:54:45;;;;;;;2.65;2.25;;;17.00;75.80;;;;;;5034104;28;20030;-72
2022/04/20 11:57:12;;;;;;;7.50;2.58;;;17.00;75.30;;;;;;5034290;28;20041;-72
2022/04/20 11:59:48;;;;;;;3.70;1.98;;;17.10;75.30;;;;;;5033760;28;20142;-72
2022/04/20 12:02:14;;;;;;;4.38;2.40;;;17.20;75.50;;;;;;5034172;28;20030;-72
2022/04/20 12:04:41;;;;;;;2.92;2.25;;;17.30;75.60;;;;;;5034219;28;20040;-72
2022/04/20 12:07:08;;;;;;;6.15;2.00;;;17.30;73.30;;;;;;5033266;28;20068;-72
2022/04/20 12:09:36;;;;;;;3.17;2.70;;;17.30;74.30;;;;;;5033754;28;20033;-72
2022/04/20 12:12:05;;;;;;;4.20;3.13;;;17.30;74.30;;;;;;5034210;28;20029;-73
2022/04/20 12:14:37;;;;;;;4.13;2.00;;;17.30;72.80;;;;;;5033529;28;20034;-72
2022/04/20 12:17:10;;;;;;;3.97;2.50;;;17.40;74.40;;;;;;5033620;28;20037;-72
2022/04/20 12:19:36;;;;;;;2.70;2.10;;;17.50;72.90;;;;;;5033109;28;20021;-72
2022/04/20 12:22:08;;;;;;;3.42;2.50;;;17.50;74.30;;;;;;5033444;28;20106;-72
2022/04/20 12:24:34;;;;;;;4.93;2.40;;;17.60;74.10;;;;;;5033800;28;20037;-72
2022/04/20 12:26:59;;;;;;;2.67;2.47;;;17.70;73.80;;;;;;5032955;28;20038;-72
2022/04/20 12:29:29;;;;;;;3.22;2.45;;;17.80;74.00;;;;;;5033735;28;20029;-72
2022/04/20 12:31:55;;;;;;;3.58;2.58;;;17.90;72.00;;;;;;5033371;28;20030;-72
2022/04/20 12:34:24;;;;;;;3.20;2.72;;;17.90;72.40;;;;;;5032726;28;20029;-72
2022/04/20 12:36:58;;;;;;;3.42;2.03;;;17.90;72.10;;;;;;5033364;28;20067;-72
2022/04/20 12:39:38;;;;;;;2.30;2.10;;;18.00;72.60;;;;;;5033413;28;20164;-72
2022/04/20 12:42:09;;;;;;;2.05;1.95;;;18.00;71.20;;;;;;5032646;28;20033;-71
2022/04/20 12:44:38;;;;;;;;;;;18.10;72.90;;;;;;5033794;28;20033;-72
2022/04/20 12:47:16;;;;;;;3.10;2.00;;;18.10;73.30;;;;;;5032973;28;19908;-73
2022/04/20 12:49:43;;;;;;;3.90;2.05;;;18.30;71.50;;;;;;5032565;28;20033;-72
2022/04/20 12:52:17;;;;;;;2.63;1.80;;;18.30;72.30;;;;;;5033067;28;20065;-73
2022/04/20 12:54:58;;;;;;;2.10;1.90;;;18.40;72.60;;;;;;5032205;28;20497;-73
2022/04/20 13:03:03;;;;;;;2.80;2.13;;;18.70;71.30;;;;;;5032128;28;20041;-72
2022/04/20 13:05:33;;;;;;;1.95;1.75;;;18.70;69.80;;;;;;5032907;28;20017;-72
2022/04/20 13:07:59;;;;;;;8.37;1.77;;;18.70;70.70;;;;;;5032811;28;20120;-72
2022/04/20 13:10:25;;;;;;;3.78;2.15;;;18.80;70.70;;;;;;5032327;28;20277;-72
2022/04/20 13:12:53;;;;;;;2.78;2.17;;;18.90;71.20;;;;;;5032618;28;20057;-72
2022/04/20 13:15:20;;;;;;;2.47;2.10;;;19.00;71.50;;;;;;5032823;28;20064;-72
2022/04/20 13:17:47;;;;;;;2.30;2.10;;;19.00;70.50;;;;;;5031898;28;20038;-72
2022/04/20 13:20:13;;;;;;;4.25;1.95;;;19.00;70.60;;;;;;5032496;28;20068;-73
2022/04/20 13:22:39;;;;;;;2.05;1.80;;;19.10;71.50;;;;;;5031887;28;20021;-72
2022/04/20 13:27:55;;;;;;;2.72;1.80;;;19.20;71.00;;;;;;5032659;28;20044;-72